Terminal Aerodrome Forecast
Issued by NWS

Home | Current Version | Previous Version | Text Only | Print | Product List | Glossary On
Versions: 1 2 3 4 5 6 7 8 9 10 11 12 13 14 15 16 17
914
FTUS43 KFGF 141735
TAFBJI
TAF
KBJI 141735Z 1418/1518 15011KT 3SM -SN BKN012 OVC020
      TEMPO 1418/1421 1SM -SN OVC010
     FM142100 16008KT 5SM -SN OVC015
     FM150400 17008KT P6SM OVC015
     FM151400 20004KT 3SM -SN BR BKN008 OVC012=

USA.gov is the U.S. government's official web portal to all federal, state and local government web resources and services.